< < Back
Terminal Aerodrome Forecast


Current Version              Previous Versions:   1  2  3  4  5  6  7  8  9  

Terminal Aerodrome Forecast

402
FTUS42 KGSP 161100
TAFAND
TAF
KAND 161132Z 1612/1712 06009KT P6SM SKC
     FM161400 07011G19KT P6SM SKC
     FM161800 08010KT P6SM SKC
     FM170000 06008KT P6SM SKC
     FM170600 06010KT P6SM SCT250=

Latest METAR

910
SAUS70 KWBC 171200
MTRAND
METAR KAND 171156Z AUTO 06010KT 10SM CLR 04/M01 A3047 RMK AO2 SLP317
T00441006 10056 20033 53016


USA.gov is the U.S. government's official web portal to all federal, state and local government web resources and services.